Date,TemperatureHighF,TemperatureAvgF,TemperatureLowF,DewpointHighF,DewpointAvgF,DewpointLowF,HumidityHigh,HumidityAvg,HumidityLow,PressureMaxIn,PressureMinIn,WindSpeedMaxMPH,WindSpeedAvgMPH,GustSpeedMaxMPH,PrecipitationSumIn
2014-1-1,32,24,20,24,19,14,91,81,71,30.64,30.37,11,5,11,0.00
2014-1-2,122,15,3,100,9,-100,93,80,2,30.73,30.22,54,8,54,0.00
2014-1-3,17,8,-7,3,-5,-14,76,57,32,30.97,30.44,12,3,23,0.00
2014-1-4,39,26,14,19,10,2,61,50,32,30.45,30.21,11,4,22,0.00
2014-1-5,36,30,10,33,25,6,99,85,46,30.29,29.69,4,0,11,0.00
2014-1-6,10,-10,-15,6,-24,-32,85,49,32,30.83,30.02,15,3,25,0.00
2014-1-7,7,-5,-14,-8,-22,-30,50,42,33,30.89,30.69,10,4,19,0.00
2014-1-8,22,18,14,11,7,-1,68,60,46,30.95,30.76,11,4,11,0.00
2014-1-9,32,21,10,31,13,-1,99,70,57,30.98,30.58,14,4,14,0.00
2014-1-10,43,37,32,42,36,31,99,98,90,30.58,29.77,16,7,17,0.39
2014-1-11,44,38,33,43,37,28,99,96,80,29.96,29.52,23,10,24,0.04
2014-1-12,42,35,29,31,28,25,88,75,59,30.30,29.96,21,10,24,0.00
2014-1-13,48,43,34,40,33,27,84,68,56,30.00,29.78,18,8,19,0.00
2014-1-14,41,32,24,32,23,12,90,72,49,30.17,29.87,30,10,31,0.01
2014-1-15,28,22,18,16,11,7,73,63,53,30.42,30.16,24,11,26,0.00
2014-1-16,31,24,16,26,17,8,89,75,57,30.32,29.79,21,9,21,0.00
2014-1-17,30,17,8,27,10,-2,90,72,49,30.32,29.88,23,9,27,0.00
2014-1-18,23,18,12,21,12,6,91,78,61,30.29,29.96,17,6,17,0.00
2014-1-19,32,23,13,20,16,9,91,74,55,30.19,29.85,22,9,24,0.00
2014-1-20,36,34,30,27,26,24,82,72,63,30.15,30.00,11,3,11,0.00
2014-1-21,30,11,1,26,-1,-12,88,59,31,30.57,30.07,27,8,27,0.00
2014-1-22,14,6,-3,10,-1,-10,83,73,56,30.58,30.22,23,5,26,0.00
2014-1-23,6,-1,-5,-1,-10,-15,73,63,54,31.12,30.40,21,10,21,0.00
2014-1-24,21,7,-7,15,-6,-14,85,56,33,31.12,29.89,30,10,30,0.00
2014-1-25,29,19,5,28,11,-7,98,71,44,30.15,29.55,34,16,34,0.00
2014-1-26,40,23,3,28,12,-7,80,62,43,30.13,29.55,48,10,52,0.02
2014-1-27,24,2,-9,14,-10,-20,70,54,33,30.90,29.83,40,17,41,0.00
2014-1-28,9,-2,-12,-10,-15,-22,64,54,38,31.02,30.69,15,4,15,0.00
2014-1-29,24,11,0,1,-5,-11,62,47,32,30.71,30.53,20,7,20,0.00
2014-1-30,32,22,12,17,2,-4,61,41,28,30.53,29.97,27,10,28,0.00
2014-1-31,32,29,27,25,17,5,88,64,31,30.45,30.16,14,4,16,0.00
2014-2-1,40,36,29,40,35,25,99,96,81,30.37,29.99,14,5,14,0.97
2014-2-2,31,25,17,31,21,11,99,87,69,30.64,30.26,0,0,0,0.00
2014-2-3,25,14,4,11,6,-2,81,70,49,30.78,30.58,0,0,0,0.09
2014-2-4,146,17,5,43,11,-100,92,80,4,30.84,30.16,55,4,55,7.48
2014-2-5,27,20,12,19,15,7,93,81,63,30.81,30.01,14,6,14,0.00
2014-2-6,17,7,-4,12,-1,-14,82,68,49,30.92,30.80,22,7,22,0.00
2014-2-7,12,2,-7,-4,-10,-14,71,59,41,30.94,30.79,16,4,16,0.00
2014-2-8,22,14,2,16,5,-7,77,67,57,30.80,30.46,9,3,9,0.00
2014-2-9,22,17,7,20,11,0,94,75,57,30.64,30.39,17,7,17,0.01
2014-2-10,11,2,-5,0,-7,-13,78,66,49,30.89,30.64,11,4,11,0.00
2014-2-11,15,0,-11,-2,-9,-18,73,63,45,31.04,30.86,6,2,8,0.00
2014-2-12,24,8,-7,6,-3,-14,75,61,39,30.86,30.31,8,2,8,0.00
2014-2-13,34,21,1,19,4,-6,76,51,27,30.31,29.68,17,5,18,0.00
2014-2-14,32,19,12,23,10,4,77,70,56,30.07,29.67,26,7,26,0.00
2014-2-15,23,16,6,12,6,-2,75,64,47,30.42,30.06,15,5,15,0.02
2014-2-16,25,22,13,18,15,7,82,74,60,30.66,30.18,15,5,15,0.00
2014-2-17,36,24,13,32,18,7,99,75,57,30.69,29.81,35,9,35,0.01
2014-2-18,46,38,27,28,24,20,77,58,38,30.35,29.87,28,10,35,0.02
2014-2-19,43,38,32,32,27,25,79,65,51,30.35,29.81,21,7,21,0.00
2014-2-20,55,44,33,52,38,25,99,82,62,30.29,29.35,30,10,36,0.32
2014-2-21,40,36,33,29,21,12,73,54,33,30.14,29.67,37,14,37,0.00
2014-2-22,43,37,31,32,23,17,91,58,37,30.32,30.07,19,6,19,0.00
2014-2-23,33,28,23,31,18,8,94,68,40,30.53,30.27,20,6,20,0.01
2014-2-24,28,22,17,12,8,3,65,53,36,30.63,30.50,21,11,22,0.00
2014-2-25,25,21,14,12,10,0,72,60,50,30.56,30.39,23,10,23,0.00
2014-2-26,19,12,4,1,-4,-8,62,49,29,30.58,29.98,23,12,23,0.00
2014-2-27,20,14,7,5,-6,-14,60,42,25,30.51,29.84,37,12,37,0.00
2014-2-28,35,20,5,7,-2,-11,70,42,13,30.60,30.32,18,6,18,0.00
2014-3-1,46,32,22,25,14,5,83,49,29,30.59,30.33,14,6,14,0.00
2014-3-2,22,18,11,18,11,1,86,71,53,30.67,30.52,14,8,14,0.00
2014-3-3,17,10,2,1,-7,-13,66,47,26,30.87,30.65,16,6,16,0.00
2014-3-4,32,18,6,10,1,-7,63,49,25,30.78,30.47,11,3,11,0.00
2014-3-5,28,20,14,17,9,2,79,62,35,30.80,30.54,14,6,14,0.00
2014-3-6,36,24,15,19,12,5,78,61,47,30.78,30.42,13,5,13,0.00
2014-3-7,57,38,18,28,21,14,84,56,21,30.42,30.11,11,3,11,0.00
2014-3-8,42,35,26,32,28,18,83,75,55,30.58,30.19,16,5,16,0.00
2014-3-9,44,32,19,26,19,14,82,59,38,30.69,30.18,17,6,17,0.00
2014-3-10,59,47,37,36,31,26,68,56,36,30.19,29.82,22,8,22,0.00
2014-3-11,67,51,37,45,38,31,85,63,32,29.89,29.66,13,3,13,0.00
2014-3-12,44,29,18,37,23,9,99,79,61,30.35,29.45,25,5,25,0.98
2014-3-13,35,25,13,19,10,-3,74,54,25,30.54,30.26,17,6,17,0.00
2014-3-14,60,46,34,35,24,15,61,44,22,30.27,29.80,34,12,34,0.00
2014-3-15,50,41,33,31,25,14,76,56,25,30.49,30.09,17,7,17,0.00
2014-3-16,33,26,18,23,11,5,66,52,41,30.60,30.38,22,10,22,0.00
2014-3-17,38,25,15,22,12,6,71,58,44,30.36,30.06,17,6,17,0.00
2014-3-18,56,40,25,36,26,19,82,59,33,30.19,29.92,18,6,18,0.00
2014-3-19,53,45,35,43,37,25,89,75,63,30.29,29.83,35,13,35,0.01
2014-3-20,50,40,30,29,24,20,73,55,36,30.41,30.25,24,8,24,0.00
2014-3-21,68,50,34,32,23,8,80,45,10,30.37,29.93,19,6,21,0.00
2014-3-22,58,42,37,35,27,17,71,56,21,30.54,29.94,27,9,27,0.00
2014-3-23,25,24,23,10,9,8,52,52,51,30.79,30.79,2,2,2,0.00
2014-3-24,36,27,19,12,6,-2,63,43,20,30.79,30.46,15,4,15,0.00
2014-3-25,32,27,22,24,14,4,87,59,30,30.60,30.28,31,9,31,0.00
2014-3-26,41,28,15,10,3,-13,75,41,10,30.77,30.54,11,3,11,0.00
2014-3-27,51,41,33,35,20,3,63,44,27,30.52,29.88,19,12,19,0.05
2014-3-28,51,44,33,45,36,28,97,76,56,30.52,29.78,26,11,26,0.11
2014-3-29,39,37,33,34,29,26,98,74,66,30.54,30.34,17,7,17,0.24
2014-3-30,55,40,27,29,24,14,90,59,24,30.66,30.44,12,4,13,0.00
2014-3-31,68,52,36,29,19,6,66,34,10,30.48,30.09,29,8,29,0.00
2014-4-1,60,54,47,39,24,12,58,32,15,30.41,30.08,31,14,31,0.02
2014-4-2,55,48,42,44,37,26,83,67,45,30.50,30.28,13,4,13,0.11
2014-4-3,51,45,42,48,44,41,99,96,77,30.32,29.80,22,7,24,1.68
2014-4-4,58,45,36,57,41,26,99,86,62,30.21,29.55,34,14,36,0.08
2014-4-5,51,40,32,28,25,21,72,55,30,30.57,30.20,24,7,24,0.00
2014-4-6,56,44,30,32,27,19,95,57,25,30.54,30.21,15,4,15,0.00
2014-4-7,47,42,40,45,36,29,99,80,56,30.21,29.51,24,7,26,0.92
2014-4-8,56,47,36,44,38,34,99,74,47,30.10,29.67,17,6,17,0.04
2014-4-9,62,52,35,37,29,20,92,45,21,30.34,30.09,21,6,21,0.00
2014-4-10,73,59,45,47,33,24,73,41,16,30.26,29.95,34,10,34,0.00
2014-4-11,69,58,49,52,37,8,99,57,10,30.39,30.14,17,4,17,0.12
2014-4-12,80,63,45,49,37,28,62,41,15,30.47,29.95,24,7,24,0.00
2014-4-13,77,70,63,52,49,44,62,48,32,30.01,29.71,31,9,31,0.00
2014-4-14,70,51,30,60,45,30,99,83,41,30.11,29.55,28,10,28,0.07
2014-4-15,37,32,28,30,16,2,99,56,24,30.60,30.08,21,6,21,0.06
2014-4-16,50,38,26,20,12,4,59,37,15,30.81,30.59,20,8,20,0.00
2014-4-17,68,52,36,30,17,5,52,31,10,30.66,30.57,21,7,21,0.00
2014-4-18,69,56,42,38,29,20,69,40,16,30.68,30.54,17,4,19,0.00
2014-4-19,66,52,39,43,32,21,99,53,19,30.85,30.63,18,7,18,0.00
2014-4-21,78,68,53,59,39,24,97,41,14,30.37,30.05,21,7,21,0.01
2014-4-22,59,53,42,59,37,19,99,60,25,30.28,29.96,23,9,23,0.04
2014-4-23,62,47,34,29,22,4,72,42,10,30.46,30.27,11,4,11,0.00
2014-4-24,64,56,48,31,15,1,51,23,10,30.46,29.89,21,10,21,0.00
2014-4-25,68,57,49,53,34,6,99,52,12,30.13,29.73,28,7,28,0.45
2014-4-26,73,61,52,44,34,22,64,39,16,30.25,30.07,14,5,14,0.00
2014-4-27,70,55,42,36,32,26,70,44,22,30.43,30.09,25,11,25,0.00
2014-4-28,64,53,46,60,48,34,99,85,51,30.17,29.65,28,9,28,0.73
2014-4-29,77,62,52,61,47,17,99,68,11,29.93,29.59,38,8,38,0.40
2014-4-30,63,54,45,54,46,35,99,78,46,30.12,29.87,25,8,25,0.00
2014-5-1,53,48,42,38,35,31,79,63,44,30.11,30.01,27,10,27,0.00
2014-5-2,53,50,46,43,39,36,87,65,53,30.11,30.03,21,9,21,0.00
2014-5-3,50,49,48,41,41,40,76,72,70,30.06,29.98,11,5,11,0.00
2014-5-9,72,66,64,57,48,43,62,52,41,30.12,30.00,31,6,31,0.06
2014-5-10,77,66,54,56,37,12,93,44,10,30.30,30.11,17,4,17,0.00
2014-5-11,87,69,54,67,53,36,99,62,29,30.38,30.14,18,5,18,0.26
2014-5-12,85,72,61,71,65,61,99,80,50,30.34,30.21,29,6,29,0.60
2014-5-13,82,70,56,72,66,56,99,91,53,30.47,30.20,20,7,20,0.54
2014-5-14,56,54,49,56,54,49,99,99,92,30.47,30.02,17,6,17,1.09
2014-5-15,52,48,42,52,44,35,99,88,59,30.37,29.93,24,8,24,0.04
2014-5-16,52,44,39,44,40,36,99,87,61,30.36,30.23,15,3,15,0.14
2014-5-17,56,48,39,44,35,21,99,67,27,30.61,30.33,14,4,14,0.00
2014-5-18,67,53,38,46,30,8,99,52,11,30.69,30.54,9,2,9,0.00
2014-5-19,55,47,43,42,38,36,83,73,52,30.69,30.56,5,0,5,0.00
2014-5-20,83,72,61,60,54,42,62,53,39,30.37,30.17,15,6,15,0.00
2014-5-21,85,73,67,68,62,56,99,69,41,30.23,30.09,20,6,20,0.00
2014-5-22,77,68,59,68,51,33,99,61,21,30.43,30.13,15,4,16,0.00
2014-5-23,76,64,50,49,41,31,89,49,20,30.53,30.40,12,3,12,0.00
2014-5-24,81,66,48,49,40,25,94,47,14,30.59,30.42,9,2,9,0.00
2014-5-25,86,71,54,56,43,24,94,44,11,30.54,30.37,9,2,9,0.00
2014-5-26,88,74,59,59,54,45,86,52,30,30.47,30.25,15,3,15,0.00
2014-5-27,87,78,68,68,58,43,95,55,22,30.32,30.11,21,6,21,0.00
2014-5-28,88,73,66,70,62,52,99,72,31,30.32,30.16,13,3,13,0.30
2014-5-29,84,72,64,69,64,58,99,80,47,30.44,30.27,11,4,11,0.01
2014-5-30,85,72,58,58,48,33,78,47,17,30.54,30.38,14,5,14,0.00
2014-5-31,88,76,60,54,43,26,76,37,11,30.56,30.41,14,4,14,0.00
2014-6-1,92,77,62,65,49,26,78,41,10,30.46,30.27,14,4,14,0.00
2014-6-2,81,73,68,72,67,63,99,83,55,30.34,30.14,27,7,27,1.51
2014-6-3,86,76,68,74,58,23,99,63,10,30.20,30.14,21,7,21,0.00
2014-6-4,77,65,60,73,59,49,99,84,50,30.19,29.84,24,5,24,0.56
2014-6-5,78,65,54,63,53,38,99,71,26,30.24,30.05,10,3,10,0.00
2014-6-6,63,56,53,60,53,51,99,89,70,30.28,30.17,4,0,4,0.00